createdAt,value
2019-03-23T00:05:24.720Z,21.52
2019-03-23T00:11:24.814Z,21.51
2019-03-23T00:17:24.766Z,21.50
2019-03-23T00:23:24.795Z,21.44
2019-03-23T00:29:24.740Z,21.41
2019-03-23T00:35:24.770Z,21.39
2019-03-23T00:41:24.814Z,21.37
2019-03-23T00:47:24.784Z,21.35
2019-03-23T00:53:24.762Z,21.34
2019-03-23T00:59:24.791Z,21.31
2019-03-23T01:05:24.775Z,21.29
2019-03-23T01:11:24.829Z,21.26
2019-03-23T01:17:24.981Z,21.25
2019-03-23T01:23:24.801Z,21.22
2019-03-23T01:29:24.788Z,21.19
2019-03-23T01:35:24.803Z,21.17
2019-03-23T01:41:24.793Z,21.14
2019-03-23T01:47:24.876Z,21.14
2019-03-23T01:53:24.917Z,21.12
2019-03-23T01:59:24.856Z,21.09
2019-03-23T02:05:24.824Z,21.08
2019-03-23T02:11:25.044Z,21.05
2019-03-23T02:17:24.889Z,21.03
2019-03-23T02:23:24.934Z,21.02
2019-03-23T02:29:24.870Z,20.99
2019-03-23T02:35:25.197Z,20.97
2019-03-23T02:41:24.877Z,20.92
2019-03-23T02:47:24.989Z,20.88
2019-03-23T02:53:24.944Z,20.83
2019-03-23T02:59:24.865Z,20.78
2019-03-23T03:05:24.864Z,20.75
2019-03-23T03:11:24.866Z,20.68
2019-03-23T03:17:24.866Z,20.65
2019-03-23T03:23:24.866Z,20.62
2019-03-23T03:29:24.871Z,20.58
2019-03-23T03:35:24.918Z,20.55
2019-03-23T03:41:24.934Z,20.51
2019-03-23T03:47:24.906Z,20.48
2019-03-23T03:53:24.971Z,20.45
2019-03-23T03:59:24.920Z,20.41
2019-03-23T04:05:24.933Z,20.39
2019-03-23T04:11:24.936Z,20.36
2019-03-23T04:17:24.936Z,20.34
2019-03-23T04:23:24.932Z,20.31
2019-03-23T04:29:24.931Z,20.27
2019-03-23T04:35:24.927Z,20.23
2019-03-23T04:41:24.941Z,20.20
2019-03-23T04:47:24.942Z,20.17
2019-03-23T04:53:24.957Z,20.15
2019-03-23T04:59:24.958Z,20.11
2019-03-23T05:05:24.941Z,20.09
2019-03-23T05:11:24.961Z,20.06
2019-03-23T05:17:24.954Z,20.03
2019-03-23T05:23:24.982Z,20.01
2019-03-23T05:29:25.000Z,19.98
2019-03-23T05:35:24.974Z,19.96
2019-03-23T05:41:24.983Z,19.93
2019-03-23T05:47:24.985Z,19.90
2019-03-23T05:53:24.993Z,19.87
2019-03-23T05:59:25.008Z,19.85
2019-03-23T06:05:25.071Z,19.83
2019-03-23T06:11:24.997Z,19.81
2019-03-23T06:17:25.045Z,19.80
2019-03-23T06:23:25.011Z,19.77
2019-03-23T06:29:25.021Z,19.75
2019-03-23T06:35:25.003Z,19.73
2019-03-23T06:41:25.011Z,19.71
2019-03-23T06:47:25.013Z,19.69
2019-03-23T06:53:25.031Z,19.66
2019-03-23T06:59:25.075Z,19.64
2019-03-23T07:05:25.064Z,19.62
2019-03-23T07:11:25.054Z,19.60
2019-03-23T07:17:25.171Z,19.58
2019-03-23T07:23:25.060Z,19.56
2019-03-23T07:29:25.079Z,19.55
2019-03-23T07:35:25.060Z,19.53
2019-03-23T07:41:25.066Z,19.52
2019-03-23T07:47:25.100Z,19.50
2019-03-23T07:53:25.098Z,19.50
2019-03-23T07:59:25.086Z,19.48
2019-03-23T08:05:25.095Z,19.46
2019-03-23T08:11:25.116Z,19.45
2019-03-23T08:17:25.077Z,19.44
2019-03-23T08:23:25.100Z,19.42
2019-03-23T08:29:25.088Z,19.41
2019-03-23T08:35:25.112Z,19.41
2019-03-23T08:41:25.121Z,19.41
2019-03-23T08:47:25.118Z,19.40
2019-03-23T08:53:25.130Z,19.40
2019-03-23T08:59:25.128Z,19.41
2019-03-23T09:05:25.209Z,19.42
2019-03-23T09:11:25.156Z,19.43
2019-03-23T09:17:25.138Z,19.44
2019-03-23T09:23:25.142Z,19.45
2019-03-23T09:29:25.292Z,19.48
2019-03-23T09:35:25.218Z,19.50
2019-03-23T09:41:25.178Z,19.53
2019-03-23T09:47:25.176Z,19.53
2019-03-23T09:53:25.173Z,19.53
2019-03-23T09:59:25.176Z,19.54
2019-03-23T10:05:25.218Z,19.53
2019-03-23T10:11:25.255Z,19.55
2019-03-23T10:17:25.336Z,19.55
2019-03-23T10:23:25.240Z,19.55
2019-03-23T10:29:25.197Z,19.57
2019-03-23T13:30:31.542Z,18.89
2019-03-23T13:36:31.537Z,18.66
2019-03-23T13:42:31.559Z,18.08
2019-03-23T13:48:31.537Z,18.07
2019-03-23T14:24:10.312Z,18.28
2019-03-23T14:30:10.634Z,18.31
2019-03-23T14:36:10.287Z,18.20
2019-03-23T14:42:10.368Z,18.18
2019-03-23T14:48:10.355Z,18.26
2019-03-23T14:54:10.590Z,18.05
2019-03-23T15:00:10.438Z,17.83
2019-03-23T15:06:10.439Z,18.16
2019-03-23T15:12:14.909Z,18.17
2019-03-23T15:24:11.449Z,18.09
2019-03-23T15:30:11.207Z,17.96
2019-03-23T15:36:11.524Z,17.97
2019-03-23T15:42:11.291Z,17.80
2019-03-23T15:48:11.200Z,17.73
2019-03-23T15:54:11.209Z,17.75
2019-03-23T16:00:11.205Z,17.69
2019-03-23T16:06:11.259Z,17.66
2019-03-23T16:12:11.210Z,17.50
2019-03-23T16:18:11.231Z,17.44
2019-03-23T16:24:11.231Z,17.50
2019-03-23T16:30:11.207Z,17.34
2019-03-23T16:36:11.353Z,17.26
2019-03-23T16:42:11.199Z,17.16
2019-03-23T16:48:14.085Z,16.99
2019-03-23T16:54:11.264Z,16.84
2019-03-23T17:00:11.296Z,16.71
2019-03-23T17:06:11.262Z,16.49
2019-03-23T17:12:11.216Z,16.36
2019-03-23T17:18:11.228Z,16.24
2019-03-23T17:24:11.272Z,16.05
2019-03-23T17:30:11.316Z,15.94
2019-03-23T17:36:11.217Z,15.71
2019-03-23T17:42:11.247Z,15.32
2019-03-23T17:48:11.333Z,14.94
2019-03-23T17:54:11.248Z,14.67
2019-03-23T18:00:11.291Z,14.25
2019-03-23T18:06:11.357Z,13.88
2019-03-23T18:12:11.820Z,13.56
2019-03-23T18:18:11.611Z,13.30
2019-03-23T18:24:11.367Z,13.01
2019-03-23T18:30:11.278Z,12.77
2019-03-23T18:36:11.375Z,12.44
2019-03-23T18:42:11.519Z,12.17
2019-03-23T18:48:11.611Z,11.91
2019-03-23T18:59:16.211Z,11.49
2019-03-23T19:05:16.088Z,11.20
2019-03-23T19:11:16.128Z,11.03
2019-03-23T19:17:16.118Z,10.90
2019-03-23T19:23:17.151Z,10.74
2019-03-23T19:29:16.132Z,10.60
2019-03-23T19:35:16.115Z,10.40
2019-03-23T19:41:16.223Z,10.28
2019-03-23T19:47:16.139Z,10.15
2019-03-23T19:53:16.120Z,10.01
2019-03-23T19:59:16.291Z,9.83
2019-03-23T20:05:16.364Z,9.68
2019-03-23T20:11:16.367Z,9.52
2019-03-23T20:17:16.236Z,9.48
2019-03-23T20:23:16.132Z,9.39
2019-03-23T20:29:16.217Z,9.29
2019-03-23T20:35:16.145Z,9.19
2019-03-23T20:41:16.164Z,9.05
2019-03-23T20:47:16.178Z,8.86
2019-03-23T20:53:16.151Z,8.79
2019-03-23T20:59:16.154Z,8.74
2019-03-23T21:05:16.157Z,8.52
2019-03-23T21:11:16.179Z,8.32
2019-03-23T21:17:16.208Z,8.08
2019-03-23T21:23:16.237Z,7.84
2019-03-23T21:29:16.404Z,7.36
2019-03-23T21:35:16.172Z,7.14
2019-03-23T21:41:16.296Z,7.20
2019-03-23T21:47:16.203Z,7.02
2019-03-23T21:53:16.219Z,7.10
2019-03-23T21:59:16.209Z,7.04
2019-03-23T22:05:16.179Z,6.97
2019-03-23T22:11:16.180Z,6.75
2019-03-23T22:17:16.206Z,6.50
2019-03-23T22:23:16.215Z,6.35
2019-03-23T22:29:16.199Z,6.29
2019-03-23T22:35:16.217Z,6.11
2019-03-23T22:41:16.183Z,5.93
2019-03-23T22:47:16.217Z,5.92
2019-03-23T22:53:16.215Z,5.79
2019-03-23T22:59:16.227Z,5.66
2019-03-23T23:05:16.253Z,5.39
2019-03-23T23:11:16.246Z,5.32
2019-03-23T23:17:16.259Z,5.24
2019-03-23T23:23:16.258Z,5.18
2019-03-23T23:29:16.609Z,5.05
2019-03-23T23:35:16.286Z,4.95
2019-03-23T23:41:16.261Z,4.83
2019-03-23T23:47:16.240Z,4.72
2019-03-23T23:53:16.262Z,4.97
2019-03-23T23:59:16.252Z,4.96
